createdAt,value
2022-11-08T00:00:40.570Z,72.83
2022-11-08T00:03:08.212Z,73.12
2022-11-08T00:05:53.334Z,73.89
2022-11-08T00:08:39.762Z,73.18
2022-11-08T00:11:25.025Z,73.50
2022-11-08T00:13:58.499Z,73.33
2022-11-08T00:16:25.973Z,73.03
2022-11-08T00:18:53.429Z,72.85
2022-11-08T00:21:20.874Z,73.51
2022-11-08T00:23:49.675Z,72.46
2022-11-08T00:26:17.205Z,72.95
2022-11-08T00:28:44.692Z,73.82
2022-11-08T00:31:12.131Z,73.16
2022-11-08T00:33:39.610Z,72.98
2022-11-08T00:36:07.541Z,73.16
2022-11-08T00:38:35.021Z,73.11
2022-11-08T00:41:03.864Z,73.52
2022-11-08T00:43:31.328Z,72.86
2022-11-08T00:45:58.808Z,72.23
2022-11-08T00:48:26.263Z,72.31
2022-11-08T00:50:53.708Z,72.73
2022-11-08T00:53:21.141Z,73.05
2022-11-08T00:55:48.600Z,72.49
2022-11-08T00:58:17.620Z,72.89
2022-11-08T01:00:45.303Z,72.65
2022-11-08T01:03:21.705Z,72.35
2022-11-08T01:05:49.718Z,72.74
2022-11-08T01:08:18.357Z,72.82
2022-11-08T01:10:48.575Z,72.38
2022-11-08T01:13:18.982Z,72.24
2022-11-08T01:15:46.904Z,72.23
2022-11-08T01:18:17.065Z,72.09
2022-11-08T01:20:46.511Z,71.62
2022-11-08T01:23:14.320Z,71.62
2022-11-08T01:25:43.592Z,71.85
2022-11-08T01:28:11.994Z,72.01
2022-11-08T01:30:43.232Z,71.13
2022-11-08T01:33:11.795Z,71.36
2022-11-08T01:35:39.859Z,71.45
2022-11-08T01:38:09.377Z,71.28
2022-11-08T01:40:43.746Z,71.90
2022-11-08T01:43:35.647Z,71.30
2022-11-08T01:46:41.626Z,71.41
2022-11-08T01:49:37.013Z,71.56
2022-11-08T01:52:17.467Z,71.37
2022-11-08T01:54:52.468Z,71.37
2022-11-08T01:57:24.051Z,71.04
2022-11-08T01:59:56.219Z,71.45
2022-11-08T02:02:25.148Z,71.68
2022-11-08T02:04:52.691Z,71.68
2022-11-08T02:07:20.314Z,71.01
2022-11-08T02:09:48.864Z,71.17
2022-11-08T02:12:18.004Z,70.75
2022-11-08T02:14:45.501Z,70.70
2022-11-08T02:17:14.369Z,70.39
2022-11-08T02:19:46.313Z,70.66
2022-11-08T02:22:20.721Z,71.35
2022-11-08T02:24:49.491Z,70.78
2022-11-08T02:27:17.007Z,70.54
2022-11-08T02:29:44.428Z,71.20
2022-11-08T02:32:12.542Z,70.42
2022-11-08T02:34:44.675Z,70.63
2022-11-08T02:37:13.242Z,69.83
2022-11-08T02:39:40.699Z,69.96
2022-11-08T02:42:14.815Z,69.49
2022-11-08T02:44:42.280Z,69.67
2022-11-08T02:47:09.989Z,68.37
2022-11-08T02:49:37.415Z,68.40
2022-11-08T02:52:05.478Z,68.30
2022-11-08T02:54:32.974Z,69.10
2022-11-08T02:57:00.449Z,68.54
2022-11-08T02:59:29.657Z,68.58
2022-11-08T03:01:57.229Z,68.55
2022-11-08T03:04:24.825Z,68.51
2022-11-08T03:06:52.395Z,68.73
2022-11-08T03:09:19.815Z,68.77
2022-11-08T03:11:47.331Z,68.48
2022-11-08T03:14:14.779Z,69.26
2022-11-08T03:16:49.103Z,68.81
2022-11-08T03:19:16.549Z,68.48
2022-11-08T03:21:44.040Z,68.17
2022-11-08T03:24:11.865Z,68.50
2022-11-08T03:26:39.310Z,68.96
2022-11-08T03:29:06.800Z,69.28
2022-11-08T03:31:37.157Z,69.40
2022-11-08T03:34:05.987Z,70.07
2022-11-08T03:36:33.450Z,69.53
2022-11-08T03:39:00.890Z,69.68
2022-11-08T03:41:28.347Z,69.70
2022-11-08T03:43:55.785Z,70.06
2022-11-08T03:46:23.236Z,69.76
2022-11-08T03:48:50.690Z,70.15
2022-11-08T03:51:19.479Z,70.61
2022-11-08T03:53:46.967Z,70.61
2022-11-08T03:56:14.440Z,70.31
2022-11-08T03:58:41.887Z,70.42
2022-11-08T04:01:09.651Z,69.91
2022-11-08T04:03:37.174Z,70.31
2022-11-08T04:06:05.348Z,70.12
2022-11-08T04:08:34.175Z,71.20
2022-11-08T04:11:22.306Z,69.71
2022-11-08T04:14:07.671Z,70.08
2022-11-08T04:16:35.483Z,70.77
2022-11-08T04:19:20.769Z,70.21
2022-11-08T04:21:50.238Z,69.71
2022-11-08T04:24:19.389Z,70.11
2022-11-08T04:26:46.883Z,71.13
2022-11-08T04:29:14.610Z,70.75
2022-11-08T04:31:42.170Z,69.71
2022-11-08T04:34:09.667Z,70.87
2022-11-08T04:36:43.180Z,69.97
2022-11-08T04:39:12.914Z,70.18
2022-11-08T04:41:43.533Z,70.29
2022-11-08T04:44:14.698Z,69.72
2022-11-08T04:46:42.166Z,69.81
2022-11-08T04:49:09.669Z,70.21
2022-11-08T04:51:39.371Z,69.80
2022-11-08T04:54:11.659Z,69.21
2022-11-08T04:56:39.100Z,69.23
2022-11-08T04:59:11.923Z,68.90
2022-11-08T05:01:39.939Z,69.62
2022-11-08T05:04:10.424Z,69.72
2022-11-08T05:06:37.915Z,69.91
2022-11-08T05:09:07.737Z,69.37
2022-11-08T05:11:35.168Z,69.22
2022-11-08T05:14:02.688Z,70.26
2022-11-08T05:16:32.746Z,69.79
2022-11-08T05:19:03.272Z,70.05
2022-11-08T05:21:51.541Z,69.24
2022-11-08T05:24:19.344Z,70.17
2022-11-08T05:26:51.329Z,69.24
2022-11-08T05:29:21.183Z,69.98
2022-11-08T05:31:51.352Z,69.25
2022-11-08T05:34:19.792Z,69.17
2022-11-08T05:36:47.235Z,68.78
2022-11-08T05:39:14.673Z,69.09
2022-11-08T05:41:44.178Z,69.09
2022-11-08T05:44:11.651Z,69.28
2022-11-08T05:46:39.123Z,70.01
2022-11-08T05:49:07.973Z,68.71
2022-11-08T05:51:35.936Z,68.77
2022-11-08T05:54:03.423Z,67.68
2022-11-08T05:56:31.064Z,68.63
2022-11-08T05:58:58.530Z,68.88
2022-11-08T06:01:26.210Z,68.69
2022-11-08T06:03:53.694Z,68.15
2022-11-08T06:06:23.355Z,68.17
2022-11-08T06:08:54.722Z,68.20
2022-11-08T06:11:24.636Z,67.49
2022-11-08T06:13:53.330Z,67.05
2022-11-08T06:16:22.378Z,66.91
2022-11-08T06:18:50.534Z,66.61
2022-11-08T06:21:19.737Z,65.80
2022-11-08T06:23:52.214Z,65.91
2022-11-08T06:26:19.664Z,66.04
2022-11-08T06:28:47.104Z,65.92
2022-11-08T06:31:14.531Z,65.13
2022-11-08T06:33:42.026Z,65.25
2022-11-08T06:36:09.612Z,65.10
2022-11-08T06:38:37.093Z,63.87
2022-11-08T06:41:05.941Z,63.26
2022-11-08T06:43:33.987Z,63.64
2022-11-08T06:46:02.433Z,64.05
2022-11-08T06:48:35.375Z,63.81
2022-11-08T06:51:04.054Z,63.36
2022-11-08T06:53:31.836Z,63.02
2022-11-08T06:55:59.756Z,62.90
2022-11-08T06:58:28.651Z,62.09
2022-11-08T07:00:56.168Z,62.70
2022-11-08T07:03:23.728Z,62.26
2022-11-08T07:05:51.202Z,61.19
2022-11-08T07:08:23.539Z,61.96
2022-11-08T07:10:51.636Z,61.64
2022-11-08T07:13:19.544Z,61.40
2022-11-08T07:15:48.746Z,59.99
2022-11-08T07:18:17.790Z,60.79
2022-11-08T07:20:45.451Z,59.66
2022-11-08T07:23:13.293Z,59.67
2022-11-08T07:25:40.751Z,59.80
2022-11-08T07:28:16.901Z,59.69
2022-11-08T07:30:44.942Z,59.36
2022-11-08T07:33:14.920Z,59.35
2022-11-08T07:35:42.958Z,59.62
2022-11-08T07:38:10.391Z,58.81
2022-11-08T07:40:37.830Z,59.81
2022-11-08T07:43:11.838Z,59.98
2022-11-08T07:45:56.266Z,59.81
2022-11-08T07:48:25.720Z,58.86
2022-11-08T07:50:53.220Z,59.35
2022-11-08T07:53:21.102Z,59.10
2022-11-08T07:55:49.230Z,59.29
2022-11-08T07:58:17.099Z,58.91
2022-11-08T08:00:45.886Z,59.77
2022-11-08T08:03:15.073Z,58.86
2022-11-08T08:05:45.168Z,59.07
2022-11-08T08:08:14.607Z,58.55
2022-11-08T08:10:42.517Z,58.98
2022-11-08T08:13:10.023Z,59.05
2022-11-08T08:15:37.780Z,58.80
2022-11-08T08:18:06.760Z,58.77
2022-11-08T08:20:34.926Z,58.81
2022-11-08T08:23:03.743Z,58.71
2022-11-08T08:25:31.807Z,58.06
2022-11-08T08:28:01.713Z,57.70
2022-11-08T08:30:31.064Z,57.96
2022-11-08T08:35:55.441Z,58.09
2022-11-08T08:38:24.429Z,57.51
2022-11-08T08:40:52.168Z,57.88
2022-11-08T08:43:20.690Z,57.94
2022-11-08T08:45:48.683Z,57.65
2022-11-08T08:48:16.220Z,56.85
2022-11-08T08:50:43.708Z,57.56
2022-11-08T08:53:11.533Z,57.18
2022-11-08T08:55:41.618Z,56.97
2022-11-08T08:58:09.408Z,56.69
2022-11-08T09:03:24.186Z,57.05
2022-11-08T09:05:51.691Z,56.29
2022-11-08T09:08:19.292Z,56.66
2022-11-08T09:10:54.097Z,56.44
2022-11-08T09:13:21.677Z,56.51
2022-11-08T09:15:49.171Z,55.69
2022-11-08T09:18:17.728Z,55.15
2022-11-08T09:20:45.396Z,55.59
2022-11-08T09:23:13.129Z,54.94
2022-11-08T09:25:40.871Z,54.32
2022-11-08T09:28:10.262Z,53.86
2022-11-08T09:30:37.697Z,54.82
2022-11-08T09:33:05.829Z,54.51
2022-11-08T09:35:33.311Z,54.65
2022-11-08T09:38:00.743Z,54.17
2022-11-08T09:40:32.568Z,53.67
2022-11-08T09:43:09.277Z,54.26
2022-11-08T09:45:44.483Z,54.54
2022-11-08T09:48:17.986Z,54.47
2022-11-08T09:50:47.884Z,53.99
2022-11-08T09:53:19.564Z,54.08
2022-11-08T09:55:53.424Z,54.62
2022-11-08T09:58:29.072Z,53.93
2022-11-08T10:00:57.901Z,53.77
2022-11-08T10:03:26.153Z,54.13
2022-11-08T10:06:11.582Z,54.07
2022-11-08T10:08:46.534Z,53.66
2022-11-08T10:11:27.590Z,54.13
2022-11-08T10:14:10.615Z,53.87
2022-11-08T10:16:48.494Z,53.91
2022-11-08T10:19:34.874Z,53.99
2022-11-08T10:22:06.238Z,53.97
2022-11-08T10:24:36.552Z,53.67
2022-11-08T10:27:11.547Z,54.07
2022-11-08T10:29:44.528Z,54.28
2022-11-08T10:32:21.958Z,54.49
2022-11-08T10:34:56.067Z,53.90
2022-11-08T10:37:25.517Z,53.50
2022-11-08T10:39:58.076Z,53.55
2022-11-08T10:42:34.988Z,53.67
2022-11-08T10:45:02.585Z,53.93
2022-11-08T10:47:33.968Z,53.47
2022-11-08T10:50:04.259Z,53.70
2022-11-08T10:52:38.181Z,53.38
2022-11-08T10:55:07.776Z,53.95
2022-11-08T10:57:40.462Z,53.79
2022-11-08T11:00:25.346Z,54.28
2022-11-08T11:02:56.251Z,53.37
2022-11-08T11:05:31.387Z,54.25
2022-11-08T11:08:03.248Z,53.86
2022-11-08T11:10:33.224Z,53.72
2022-11-08T11:13:10.628Z,53.98
2022-11-08T11:15:40.411Z,53.84
2022-11-08T11:18:22.618Z,54.40
2022-11-08T11:21:06.638Z,54.16
2022-11-08T11:23:36.319Z,54.36
2022-11-08T11:26:05.197Z,54.49
2022-11-08T11:28:32.641Z,54.66
2022-11-08T11:31:01.960Z,54.47
2022-11-08T11:33:33.490Z,54.54
2022-11-08T11:36:09.379Z,54.93
2022-11-08T11:38:49.229Z,54.99
2022-11-08T11:41:19.385Z,55.17
2022-11-08T11:44:03.201Z,54.77
2022-11-08T11:46:41.152Z,54.89
2022-11-08T11:49:14.408Z,55.28
2022-11-08T11:51:41.911Z,55.17
2022-11-08T11:54:14.566Z,55.27
2022-11-08T11:56:49.453Z,55.28
2022-11-08T11:59:39.208Z,54.90
2022-11-08T12:02:42.491Z,54.61
2022-11-08T12:05:26.310Z,54.29
2022-11-08T12:08:03.914Z,54.35
2022-11-08T12:10:46.558Z,53.73
2022-11-08T12:13:21.984Z,54.05
2022-11-08T12:15:54.544Z,53.80
2022-11-08T12:18:44.488Z,53.95
2022-11-08T12:21:15.792Z,54.26
2022-11-08T12:24:16.944Z,54.39
2022-11-08T12:26:53.124Z,54.08
2022-11-08T12:29:26.929Z,53.98
2022-11-08T12:32:08.341Z,54.09
2022-11-08T12:34:47.153Z,53.59
2022-11-08T12:37:28.091Z,52.85
2022-11-08T12:40:00.987Z,52.89
2022-11-08T12:42:51.919Z,53.06
2022-11-08T12:45:48.685Z,52.79
2022-11-08T12:48:27.985Z,52.65
2022-11-08T12:51:03.964Z,52.74
2022-11-08T12:53:49.625Z,53.60
2022-11-08T12:56:22.122Z,52.58
2022-11-08T12:58:51.406Z,52.91
2022-11-08T13:01:20.627Z,52.79
2022-11-08T13:04:11.728Z,53.02
2022-11-08T13:06:44.921Z,53.03
2022-11-08T13:09:23.818Z,52.99
2022-11-08T13:12:01.162Z,53.06
2022-11-08T13:14:29.166Z,53.19
2022-11-08T13:17:19.005Z,53.25
2022-11-08T13:20:25.508Z,53.83
2022-11-08T13:23:01.839Z,53.40
2022-11-08T13:25:41.521Z,53.76
2022-11-08T13:28:51.741Z,53.50
2022-11-08T13:31:45.434Z,52.89
2022-11-08T13:34:22.562Z,53.29
2022-11-08T13:37:06.503Z,53.63
2022-11-08T13:39:52.589Z,53.55
2022-11-08T13:42:39.239Z,53.58
2022-11-08T13:45:29.004Z,53.36
2022-11-08T13:47:59.277Z,53.04
2022-11-08T13:50:50.023Z,53.22
2022-11-08T13:53:45.080Z,53.55
2022-11-08T13:56:25.735Z,53.81
2022-11-08T13:58:54.516Z,54.34
2022-11-08T14:02:04.852Z,54.25
2022-11-08T14:04:35.340Z,54.60
2022-11-08T14:07:09.220Z,54.43
2022-11-08T14:09:47.302Z,54.03
2022-11-08T14:12:20.953Z,54.57
2022-11-08T14:14:56.047Z,54.57
2022-11-08T14:17:40.832Z,54.63
2022-11-08T14:20:40.267Z,54.51
2022-11-08T14:23:23.868Z,54.87
2022-11-08T14:25:53.713Z,54.57
2022-11-08T14:28:23.820Z,54.97
2022-11-08T14:30:53.107Z,55.10
2022-11-08T14:33:23.042Z,55.27
2022-11-08T14:35:55.843Z,55.67
2022-11-08T14:38:24.247Z,55.64
2022-11-08T14:40:54.208Z,56.04
2022-11-08T14:43:23.201Z,55.92
2022-11-08T14:45:52.491Z,56.18
2022-11-08T14:48:23.950Z,55.42
2022-11-08T14:50:59.253Z,55.73
2022-11-08T14:53:28.471Z,55.81
2022-11-08T14:56:16.943Z,55.91
2022-11-08T14:58:45.419Z,56.24
2022-11-08T15:01:16.692Z,56.06
2022-11-08T15:03:48.490Z,55.89
2022-11-08T15:06:16.118Z,55.89
2022-11-08T15:08:49.045Z,55.89
2022-11-08T15:11:29.219Z,56.63
2022-11-08T15:14:00.145Z,56.99
2022-11-08T15:16:38.439Z,56.78
2022-11-08T15:19:20.533Z,56.23
2022-11-08T15:21:49.310Z,56.97
2022-11-08T15:24:17.724Z,56.69
2022-11-08T15:27:01.555Z,56.62
2022-11-08T15:29:29.222Z,56.83
2022-11-08T15:32:01.976Z,56.63
2022-11-08T15:34:38.142Z,57.11
2022-11-08T15:37:20.347Z,56.16
2022-11-08T15:39:47.915Z,56.47
2022-11-08T15:42:18.044Z,57.07
2022-11-08T15:45:02.832Z,56.49
2022-11-08T15:47:40.420Z,57.02
2022-11-08T15:50:17.011Z,56.63
2022-11-08T15:52:46.142Z,56.55
2022-11-08T15:55:15.658Z,56.55
2022-11-08T15:57:44.874Z,56.66
2022-11-08T16:00:18.377Z,56.55
2022-11-08T16:02:47.126Z,56.71
2022-11-08T16:05:21.231Z,57.05
2022-11-08T16:07:48.676Z,56.59
2022-11-08T16:10:17.864Z,56.54
2022-11-08T16:12:47.059Z,56.80
2022-11-08T16:15:17.590Z,56.97
2022-11-08T16:17:46.666Z,56.32
2022-11-08T16:20:20.971Z,56.62
2022-11-08T16:22:48.404Z,57.38
2022-11-08T16:25:15.904Z,57.18
2022-11-08T16:27:43.522Z,57.28
2022-11-08T16:30:15.413Z,57.25
2022-11-08T16:32:43.453Z,57.32
2022-11-08T16:35:12.269Z,57.69
2022-11-08T16:37:40.055Z,57.64
2022-11-08T16:40:16.194Z,57.68
2022-11-08T16:42:43.776Z,57.57
2022-11-08T16:45:12.339Z,57.70
2022-11-08T16:47:40.251Z,57.73
2022-11-08T16:50:14.528Z,57.87
2022-11-08T16:52:43.337Z,57.80
2022-11-08T16:55:17.449Z,58.28
2022-11-08T16:57:45.918Z,58.27
2022-11-08T17:00:15.927Z,57.70
2022-11-08T17:02:47.314Z,58.02
2022-11-08T17:05:18.815Z,57.78
2022-11-08T17:07:47.634Z,57.59
2022-11-08T17:10:17.433Z,58.13
2022-11-08T17:12:44.920Z,57.90
2022-11-08T17:15:13.974Z,58.35
2022-11-08T17:17:44.052Z,58.26
2022-11-08T17:20:13.805Z,57.90
2022-11-08T17:22:41.879Z,58.13
2022-11-08T17:25:13.572Z,57.97
2022-11-08T17:27:41.068Z,57.94
2022-11-08T17:30:10.306Z,57.81
2022-11-08T17:32:38.086Z,58.36
2022-11-08T17:35:07.542Z,58.54
2022-11-08T17:37:35.925Z,60.68
2022-11-08T17:40:05.332Z,60.43
2022-11-08T17:42:37.300Z,59.88
2022-11-08T17:45:07.451Z,60.00
2022-11-08T17:47:34.932Z,60.04
2022-11-08T17:50:02.585Z,60.06
2022-11-08T17:52:31.076Z,59.85
2022-11-08T17:54:58.543Z,59.60
2022-11-08T17:57:26.967Z,59.82
2022-11-08T17:59:55.731Z,59.64
2022-11-08T18:02:23.240Z,59.55
2022-11-08T18:04:50.723Z,59.91
2022-11-08T18:07:18.173Z,59.49
2022-11-08T18:09:45.678Z,59.86
2022-11-08T18:12:13.122Z,59.48
2022-11-08T18:14:40.594Z,59.69
2022-11-08T18:17:09.360Z,59.51
2022-11-08T18:19:37.181Z,59.76
2022-11-08T18:22:05.425Z,59.80
2022-11-08T18:24:33.064Z,59.79
2022-11-08T18:27:00.504Z,59.70
2022-11-08T18:29:28.194Z,59.58
2022-11-08T18:31:55.618Z,59.34
2022-11-08T18:34:24.433Z,60.17
2022-11-08T18:36:51.876Z,59.89
2022-11-08T18:39:19.963Z,59.59
2022-11-08T18:41:47.698Z,59.61
2022-11-08T18:44:15.353Z,59.79
2022-11-08T18:46:43.703Z,60.08
2022-11-08T18:49:11.778Z,59.80
2022-11-08T18:51:40.646Z,59.22
2022-11-08T18:54:08.148Z,59.75
2022-11-08T18:56:35.703Z,59.94
2022-11-08T18:59:03.313Z,59.66
2022-11-08T19:01:31.247Z,59.12
2022-11-08T19:03:58.735Z,59.50
2022-11-08T19:06:26.276Z,59.41
2022-11-08T19:08:57.419Z,59.32
2022-11-08T19:11:24.876Z,59.60
2022-11-08T19:13:52.334Z,59.87
2022-11-08T19:16:21.759Z,59.43
2022-11-08T19:18:50.071Z,59.59
2022-11-08T19:21:19.991Z,59.37
2022-11-08T19:23:48.084Z,59.74
2022-11-08T19:26:18.811Z,60.28
2022-11-08T19:28:47.269Z,59.88
2022-11-08T19:31:16.469Z,59.90
2022-11-08T19:33:44.584Z,59.43
2022-11-08T19:36:14.975Z,60.08
2022-11-08T19:38:42.698Z,60.61
2022-11-08T19:41:12.155Z,60.44
2022-11-08T19:43:42.856Z,59.92
2022-11-08T19:46:13.172Z,59.98
2022-11-08T19:48:42.516Z,60.20
2022-11-08T19:51:13.684Z,60.42
2022-11-08T19:53:41.289Z,60.30
2022-11-08T19:56:10.995Z,60.62
2022-11-08T19:58:39.563Z,60.59
2022-11-08T20:01:12.810Z,60.62
2022-11-08T20:03:40.645Z,60.58
2022-11-08T20:06:09.218Z,60.70
2022-11-08T20:08:37.332Z,60.70
2022-11-08T20:11:12.094Z,60.20
2022-11-08T20:13:39.582Z,60.69
2022-11-08T20:16:12.795Z,60.59
2022-11-08T20:18:40.838Z,60.25
2022-11-08T20:21:09.454Z,60.55
2022-11-08T20:23:37.219Z,60.79
2022-11-08T20:26:08.120Z,60.50
2022-11-08T20:28:36.307Z,60.46
2022-11-08T20:31:11.616Z,60.73
2022-11-08T20:33:40.892Z,60.60
2022-11-08T20:36:14.635Z,60.14
2022-11-08T20:38:42.940Z,60.71
2022-11-08T20:41:12.747Z,60.78
2022-11-08T20:43:40.675Z,60.87
2022-11-08T20:46:10.254Z,60.68
2022-11-08T20:48:42.727Z,60.86
2022-11-08T20:51:16.144Z,61.29
2022-11-08T20:53:43.930Z,61.36
2022-11-08T20:56:17.039Z,60.92
2022-11-08T20:58:45.610Z,61.19
2022-11-08T21:01:14.855Z,61.60
2022-11-08T21:03:43.148Z,61.21
2022-11-08T21:06:13.669Z,61.36
2022-11-08T21:09:04.837Z,61.18
2022-11-08T21:11:34.421Z,61.46
2022-11-08T21:14:02.531Z,61.73
2022-11-08T21:16:46.990Z,61.79
2022-11-08T21:19:22.640Z,61.97
2022-11-08T21:22:11.451Z,61.82
2022-11-08T21:24:38.965Z,61.89
2022-11-08T21:27:12.236Z,61.64
2022-11-08T21:29:40.052Z,61.85
2022-11-08T21:32:10.632Z,61.51
2022-11-08T21:34:45.481Z,61.82
2022-11-08T21:37:15.607Z,62.08
2022-11-08T21:39:45.310Z,61.86
2022-11-08T21:42:13.772Z,61.83
2022-11-08T21:44:41.300Z,62.03
2022-11-08T21:47:08.813Z,62.09
2022-11-08T21:49:38.377Z,61.97
2022-11-08T21:52:06.156Z,61.88
2022-11-08T21:54:35.218Z,61.65
2022-11-08T21:57:04.705Z,62.04
2022-11-08T21:59:32.209Z,61.89
2022-11-08T22:01:59.713Z,61.64
2022-11-08T22:04:30.519Z,61.87
2022-11-08T22:06:58.105Z,62.05
2022-11-08T22:09:28.160Z,62.12
2022-11-08T22:11:59.501Z,62.26
2022-11-08T22:14:26.973Z,62.55
2022-11-08T22:16:56.771Z,62.44
2022-11-08T22:19:24.257Z,62.57
2022-11-08T22:21:53.251Z,62.85
2022-11-08T22:24:23.542Z,62.41
2022-11-08T22:26:52.592Z,62.81
2022-11-08T22:29:23.774Z,63.00
2022-11-08T22:31:53.352Z,62.20
2022-11-08T22:34:20.829Z,62.06
2022-11-08T22:36:50.039Z,62.22
2022-11-08T22:39:19.648Z,62.45
2022-11-08T22:41:50.417Z,63.02
2022-11-08T22:44:18.501Z,62.87
2022-11-08T22:46:48.286Z,62.72
2022-11-08T22:49:18.803Z,63.08
2022-11-08T22:51:46.369Z,62.28
2022-11-08T22:54:13.915Z,62.96
2022-11-08T22:56:41.702Z,62.76
2022-11-08T22:59:12.859Z,62.61
2022-11-08T23:01:40.348Z,62.57
2022-11-08T23:04:11.150Z,63.00
2022-11-08T23:06:41.258Z,62.82
2022-11-08T23:09:08.961Z,62.71
2022-11-08T23:11:54.299Z,62.78
2022-11-08T23:14:39.913Z,63.05
2022-11-08T23:17:08.890Z,63.19
2022-11-08T23:19:55.496Z,63.34
2022-11-08T23:22:37.112Z,63.09
2022-11-08T23:25:05.924Z,63.03
2022-11-08T23:27:51.207Z,63.12
2022-11-08T23:30:36.664Z,62.71
2022-11-08T23:33:06.443Z,62.95
2022-11-08T23:35:35.389Z,62.76
2022-11-08T23:38:03.014Z,62.98
2022-11-08T23:40:48.176Z,62.73
2022-11-08T23:43:35.061Z,62.81
2022-11-08T23:46:06.596Z,63.24
2022-11-08T23:48:34.139Z,62.97
2022-11-08T23:51:03.109Z,63.55
2022-11-08T23:53:30.581Z,63.76
2022-11-08T23:55:58.038Z,63.52
2022-11-08T23:58:26.396Z,63.74
